createdAt,value
2019-01-12T00:00:01.811Z,7.57
2019-01-12T00:02:29.052Z,3.50
2019-01-12T00:04:56.294Z,5.47
2019-01-12T00:07:23.552Z,5.13
2019-01-12T00:09:50.770Z,7.20
2019-01-12T00:12:18.363Z,7.83
2019-01-12T00:14:45.598Z,8.90
2019-01-12T00:17:12.990Z,9.37
2019-01-12T00:19:40.296Z,11.00
2019-01-12T00:22:07.528Z,5.10
2019-01-12T00:24:34.746Z,4.27
2019-01-12T00:27:02.006Z,5.13
2019-01-12T00:29:29.311Z,5.07
2019-01-12T00:31:56.503Z,5.87
2019-01-12T00:34:24.032Z,7.33
2019-01-12T00:36:51.257Z,7.93
2019-01-12T00:39:18.606Z,7.63
2019-01-12T00:41:46.074Z,6.07
2019-01-12T00:44:13.284Z,7.50
2019-01-12T00:46:40.727Z,5.37
2019-01-12T00:49:07.988Z,4.30
2019-01-12T00:51:35.334Z,2.60
2019-01-12T00:54:02.681Z,2.57
2019-01-12T00:56:29.915Z,4.60
2019-01-12T00:58:57.169Z,8.10
2019-01-12T01:01:24.763Z,12.20
2019-01-12T01:03:52.148Z,8.00
2019-01-12T01:06:19.388Z,8.17
2019-01-12T01:08:46.603Z,13.83
2019-01-12T01:11:13.831Z,8.20
2019-01-12T01:13:41.085Z,8.80
2019-01-12T01:16:08.334Z,5.33
2019-01-12T01:18:35.551Z,6.93
2019-01-12T01:21:02.905Z,6.80
2019-01-12T01:23:30.123Z,4.20
2019-01-12T01:25:57.378Z,13.10
2019-01-12T01:28:24.716Z,7.33
2019-01-12T01:30:52.112Z,6.70
2019-01-12T01:33:19.370Z,7.80
2019-01-12T01:35:46.588Z,8.07
2019-01-12T01:38:13.854Z,7.53
2019-01-12T01:40:41.055Z,11.03
2019-01-12T01:43:08.316Z,11.07
2019-01-12T01:45:35.827Z,9.17
2019-01-12T01:48:03.164Z,8.30
2019-01-12T01:50:30.718Z,6.80
2019-01-12T01:52:57.988Z,8.53
2019-01-12T01:55:26.525Z,8.87
2019-01-12T01:57:53.753Z,11.57
2019-01-12T02:00:21.072Z,10.93
2019-01-12T02:02:48.356Z,8.60
2019-01-12T02:05:15.856Z,9.47
2019-01-12T02:07:43.191Z,10.33
2019-01-12T02:10:14.074Z,18.37
2019-01-12T02:12:41.291Z,10.53
2019-01-12T02:15:09.755Z,12.43
2019-01-12T02:17:36.988Z,13.83
2019-01-12T02:20:04.980Z,6.40
2019-01-12T02:22:32.205Z,10.23
2019-01-12T02:25:00.987Z,8.63
2019-01-12T02:27:28.284Z,15.60
2019-01-12T02:29:55.518Z,7.87
2019-01-12T02:32:22.771Z,7.90
2019-01-12T02:34:52.174Z,6.43
2019-01-12T02:37:19.498Z,6.30
2019-01-12T02:39:46.796Z,10.93
2019-01-12T02:42:14.393Z,8.70
2019-01-12T02:44:41.610Z,3.97
2019-01-12T02:47:09.245Z,9.33
2019-01-12T02:49:36.610Z,9.20
2019-01-12T02:52:03.835Z,6.33
2019-01-12T02:54:31.076Z,12.10
2019-01-12T02:56:59.486Z,8.40
2019-01-12T02:59:26.874Z,8.73
2019-01-12T03:01:54.498Z,12.40
2019-01-12T03:04:21.820Z,9.63
2019-01-12T03:06:49.194Z,11.97
2019-01-12T03:09:17.579Z,9.57
2019-01-12T03:11:44.858Z,16.17
2019-01-12T03:14:12.148Z,10.67
2019-01-12T03:16:39.404Z,11.67
2019-01-12T03:19:06.623Z,7.90
2019-01-12T03:21:33.950Z,8.47
2019-01-12T03:24:01.186Z,10.40
2019-01-12T03:26:28.465Z,8.13
2019-01-12T03:28:55.673Z,11.20
2019-01-12T03:31:22.916Z,10.80
2019-01-12T03:33:50.293Z,12.90
2019-01-12T03:36:17.530Z,10.87
2019-01-12T03:38:45.047Z,7.63
2019-01-12T03:41:12.347Z,12.00
2019-01-12T03:43:39.961Z,10.40
2019-01-12T03:46:07.480Z,7.30
2019-01-12T03:48:34.691Z,9.33
2019-01-12T03:51:01.983Z,9.93
2019-01-12T03:53:29.202Z,6.50
2019-01-12T03:55:56.444Z,10.20
2019-01-12T03:58:23.799Z,8.67
2019-01-12T04:00:51.056Z,8.80
2019-01-12T04:03:18.286Z,9.37
2019-01-12T04:05:45.530Z,8.97
2019-01-12T04:08:12.802Z,7.60
2019-01-12T04:10:40.061Z,7.47
2019-01-12T04:13:07.287Z,6.83
2019-01-12T04:15:34.516Z,7.33
2019-01-12T04:18:01.774Z,7.50
2019-01-12T04:20:29.002Z,5.60
2019-01-12T04:22:56.473Z,6.23
2019-01-12T04:25:23.832Z,3.43
2019-01-12T04:27:53.308Z,3.47
2019-01-12T04:30:20.532Z,3.70
2019-01-12T04:32:47.829Z,3.00
2019-01-12T04:35:15.495Z,6.73
2019-01-12T04:37:42.728Z,3.20
2019-01-12T04:40:15.481Z,3.60
2019-01-12T04:42:42.710Z,2.03
2019-01-12T04:45:10.176Z,2.77
2019-01-12T04:47:37.568Z,3.33
2019-01-12T04:50:07.041Z,4.07
2019-01-12T04:52:34.326Z,4.13
2019-01-12T04:55:01.616Z,4.80
2019-01-12T04:57:29.119Z,5.13
2019-01-12T04:59:56.377Z,5.43
2019-01-12T05:02:24.094Z,4.80
2019-01-12T05:04:51.411Z,6.13
2019-01-12T05:07:18.720Z,5.70
2019-01-12T05:09:46.057Z,4.83
2019-01-12T05:12:13.565Z,5.40
2019-01-12T05:14:40.822Z,5.20
2019-01-12T05:17:08.081Z,6.07
2019-01-12T05:19:35.412Z,8.60
2019-01-12T05:22:02.649Z,4.30
2019-01-12T05:24:29.902Z,6.37
2019-01-12T05:26:57.108Z,5.70
2019-01-12T05:29:24.320Z,5.23
2019-01-12T05:31:52.527Z,6.17
2019-01-12T05:34:19.844Z,4.87
2019-01-12T05:36:47.201Z,3.23
2019-01-12T05:39:14.469Z,6.03
2019-01-12T05:41:41.670Z,6.33
2019-01-12T05:44:08.935Z,6.20
2019-01-12T05:46:36.145Z,6.30
2019-01-12T05:49:03.406Z,5.37
2019-01-12T05:51:30.725Z,3.83
2019-01-12T05:53:57.942Z,5.20
2019-01-12T05:56:25.188Z,4.00
2019-01-12T05:58:52.420Z,5.17
2019-01-12T06:01:19.668Z,4.13
2019-01-12T06:03:49.250Z,4.37
2019-01-12T06:06:16.583Z,4.33
2019-01-12T06:08:43.917Z,6.53
2019-01-12T06:11:11.139Z,2.83
2019-01-12T06:13:38.410Z,5.13
2019-01-12T06:16:05.648Z,4.23
2019-01-12T06:18:32.884Z,5.37
2019-01-12T06:21:00.135Z,6.13
2019-01-12T06:23:27.908Z,4.70
2019-01-12T06:25:55.121Z,6.30
2019-01-12T06:28:22.372Z,6.23
2019-01-12T06:30:49.624Z,7.07
2019-01-12T06:33:16.925Z,9.33
2019-01-12T06:35:45.855Z,5.20
2019-01-12T06:38:13.127Z,9.77
2019-01-12T06:40:40.414Z,7.87
2019-01-12T06:43:07.619Z,5.27
2019-01-12T06:45:34.831Z,8.77
2019-01-12T06:48:02.099Z,8.50
2019-01-12T06:50:29.380Z,9.23
2019-01-12T06:52:56.604Z,6.50
2019-01-12T06:55:23.833Z,8.23
2019-01-12T06:57:51.106Z,11.83
2019-01-12T07:00:19.544Z,9.93
2019-01-12T07:02:49.448Z,9.03
2019-01-12T07:05:16.877Z,9.60
2019-01-12T07:07:49.054Z,10.30
2019-01-12T07:10:16.439Z,7.37
2019-01-12T07:12:43.910Z,11.97
2019-01-12T07:15:11.824Z,12.97
2019-01-12T07:17:39.108Z,10.60
2019-01-12T07:20:09.862Z,11.17
2019-01-12T07:22:37.157Z,14.70
2019-01-12T07:25:04.725Z,16.40
2019-01-12T07:27:32.084Z,12.97
2019-01-12T07:29:59.393Z,11.03
2019-01-12T07:32:26.608Z,15.20
2019-01-12T07:34:54.323Z,11.53
2019-01-12T07:37:22.583Z,15.67
2019-01-12T07:39:49.804Z,17.90
2019-01-12T07:42:17.166Z,16.93
2019-01-12T07:44:44.499Z,17.40
2019-01-12T07:47:13.201Z,15.50
2019-01-12T07:49:41.892Z,19.13
2019-01-12T07:52:09.174Z,21.67
2019-01-12T07:54:36.563Z,17.60
2019-01-12T07:57:03.927Z,14.23
2019-01-12T07:59:31.143Z,15.17
2019-01-12T08:01:58.375Z,17.00
2019-01-12T08:04:28.041Z,19.53
2019-01-12T08:06:55.457Z,17.83
2019-01-12T08:09:22.674Z,20.53
2019-01-12T08:11:50.132Z,19.13
2019-01-12T08:14:17.481Z,16.20
2019-01-12T08:16:46.380Z,19.47
2019-01-12T08:19:13.864Z,19.73
2019-01-12T08:21:43.049Z,19.10
2019-01-12T08:24:11.285Z,18.63
2019-01-12T08:26:38.532Z,15.13
2019-01-12T08:29:05.849Z,18.43
2019-01-12T08:31:33.112Z,17.00
2019-01-12T08:34:00.338Z,18.57
2019-01-12T08:36:27.908Z,18.70
2019-01-12T08:38:55.147Z,21.50
2019-01-12T08:41:26.556Z,21.47
2019-01-12T08:43:53.915Z,14.70
2019-01-12T08:46:21.512Z,16.40
2019-01-12T08:48:48.963Z,17.87
2019-01-12T08:51:16.628Z,13.47
2019-01-12T08:53:43.856Z,18.27
2019-01-12T08:56:11.121Z,22.17
2019-01-12T08:58:38.391Z,21.57
2019-01-12T09:01:05.641Z,14.93
2019-01-12T09:03:32.988Z,13.27
2019-01-12T09:06:00.888Z,20.60
2019-01-12T09:08:28.330Z,18.10
2019-01-12T09:10:55.605Z,22.50
2019-01-12T09:13:22.836Z,15.83
2019-01-12T09:15:50.052Z,15.70
2019-01-12T09:18:17.318Z,15.53
2019-01-12T09:20:44.562Z,16.10
2019-01-12T09:23:11.838Z,11.03
2019-01-12T09:25:39.077Z,10.87
2019-01-12T09:28:06.308Z,11.77
2019-01-12T09:30:33.565Z,11.77
2019-01-12T09:33:00.807Z,8.10
2019-01-12T09:35:28.094Z,11.87
2019-01-12T09:37:55.325Z,11.27
2019-01-12T09:40:22.565Z,11.27
2019-01-12T09:42:50.229Z,11.27
2019-01-12T09:45:17.745Z,8.90
2019-01-12T09:47:47.957Z,11.50
2019-01-12T09:50:17.163Z,11.13
2019-01-12T09:52:44.376Z,9.73
2019-01-12T09:55:11.711Z,11.67
2019-01-12T09:57:39.228Z,9.47
2019-01-12T10:00:18.279Z,9.60
2019-01-12T10:02:45.520Z,8.83
2019-01-12T10:05:12.975Z,9.23
2019-01-12T10:07:42.180Z,8.77
2019-01-12T10:10:13.775Z,7.63
2019-01-12T10:12:44.030Z,9.50
2019-01-12T10:15:11.465Z,9.07
2019-01-12T10:17:38.751Z,8.33
2019-01-12T10:20:07.849Z,6.97
2019-01-12T10:22:35.116Z,8.63
2019-01-12T10:25:02.370Z,10.57
2019-01-12T10:27:29.597Z,11.00
2019-01-12T10:29:57.212Z,8.57
2019-01-12T10:32:24.409Z,9.90
2019-01-12T10:34:51.876Z,8.57
2019-01-12T10:37:19.234Z,10.33
2019-01-12T10:39:46.459Z,8.33
2019-01-12T10:42:13.683Z,10.73
2019-01-12T10:44:40.982Z,10.93
2019-01-12T10:47:08.247Z,10.43
2019-01-12T10:49:35.503Z,16.20
2019-01-12T10:52:02.918Z,15.97
2019-01-12T10:54:30.201Z,18.67
2019-01-12T10:56:57.449Z,14.87
2019-01-12T10:59:24.680Z,12.93
2019-01-12T11:01:51.893Z,15.77
2019-01-12T11:04:19.441Z,17.97
2019-01-12T11:06:46.656Z,13.93
2019-01-12T11:09:14.443Z,21.33
2019-01-12T11:11:41.881Z,16.97
2019-01-12T11:14:09.170Z,17.10
2019-01-12T11:16:47.209Z,18.13
2019-01-12T11:19:14.633Z,22.97
2019-01-12T11:21:41.881Z,19.37
2019-01-12T11:24:09.253Z,17.07
2019-01-12T11:26:36.468Z,20.63
2019-01-12T11:29:04.261Z,15.63
2019-01-12T11:31:32.539Z,23.13
2019-01-12T11:34:00.424Z,12.23
2019-01-12T11:36:27.749Z,17.00
2019-01-12T11:38:54.993Z,16.67
2019-01-12T11:41:22.253Z,15.00
2019-01-12T11:43:49.512Z,16.40
2019-01-12T11:46:17.126Z,14.20
2019-01-12T11:48:44.342Z,17.63
2019-01-12T11:51:13.111Z,19.23
2019-01-12T11:53:40.474Z,13.07
2019-01-12T11:56:07.698Z,12.80
2019-01-12T11:58:34.923Z,17.90
2019-01-12T12:01:02.600Z,14.60
2019-01-12T12:03:29.827Z,12.67
2019-01-12T12:05:57.141Z,11.03
2019-01-12T12:08:24.434Z,11.67
2019-01-12T12:10:51.679Z,11.60
2019-01-12T12:13:18.967Z,10.17
2019-01-12T12:15:46.193Z,12.03
2019-01-12T12:18:13.453Z,16.80
2019-01-12T12:20:40.723Z,18.27
2019-01-12T12:23:07.946Z,24.83
2019-01-12T12:25:35.194Z,21.20
2019-01-12T12:28:02.527Z,21.43
2019-01-12T12:30:30.532Z,19.47
2019-01-12T12:32:58.518Z,22.23
2019-01-12T12:35:25.777Z,23.03
2019-01-12T12:37:53.029Z,13.93
2019-01-12T12:40:21.082Z,21.53
2019-01-12T12:42:48.380Z,15.90
2019-01-12T12:45:17.940Z,18.57
2019-01-12T12:47:45.153Z,25.03
2019-01-12T12:50:13.540Z,20.37
2019-01-12T12:52:40.761Z,19.70
2019-01-12T12:55:08.659Z,22.63
2019-01-12T12:57:35.937Z,19.07
2019-01-12T13:00:05.810Z,25.70
2019-01-12T13:02:33.034Z,17.87
2019-01-12T13:05:00.320Z,22.73
2019-01-12T13:07:27.569Z,18.80
2019-01-12T13:09:54.846Z,17.47
2019-01-12T13:12:22.099Z,22.17
2019-01-12T13:14:49.517Z,19.10
2019-01-12T13:17:16.737Z,23.63
2019-01-12T13:19:44.036Z,24.57
2019-01-12T13:22:11.548Z,24.60
2019-01-12T13:24:38.846Z,17.97
2019-01-12T13:27:06.058Z,22.27
2019-01-12T13:29:33.314Z,17.77
2019-01-12T13:32:00.596Z,21.97
2019-01-12T13:34:27.817Z,18.77
2019-01-12T13:36:55.095Z,20.67
2019-01-12T13:39:22.348Z,20.03
2019-01-12T13:41:49.589Z,18.93
2019-01-12T13:44:17.117Z,21.80
2019-01-12T13:46:44.371Z,21.73
2019-01-12T13:49:11.654Z,24.60
2019-01-12T13:51:39.200Z,20.13
2019-01-12T13:54:06.487Z,20.37
2019-01-12T13:56:33.754Z,24.70
2019-01-12T13:59:00.968Z,18.33
2019-01-12T14:01:28.228Z,21.70
2019-01-12T14:03:55.504Z,22.83
2019-01-12T14:06:22.776Z,25.43
2019-01-12T14:08:50.132Z,20.43
2019-01-12T14:11:17.433Z,24.57
2019-01-12T14:13:44.724Z,19.23
2019-01-12T14:16:12.049Z,14.07
2019-01-12T14:18:39.393Z,16.57
2019-01-12T14:21:06.637Z,17.47
2019-01-12T14:23:34.460Z,16.87
2019-01-12T14:26:01.697Z,17.20
2019-01-12T14:28:30.595Z,12.73
2019-01-12T14:30:57.862Z,21.03
2019-01-12T14:33:25.139Z,20.67
2019-01-12T14:35:52.389Z,21.97
2019-01-12T14:38:19.617Z,16.83
2019-01-12T14:40:46.926Z,11.47
2019-01-12T14:43:14.246Z,22.93
2019-01-12T14:45:41.602Z,14.63
2019-01-12T14:48:09.264Z,21.67
2019-01-12T14:50:36.620Z,25.80
2019-01-12T14:53:03.938Z,24.57
2019-01-12T14:55:31.513Z,15.90
2019-01-12T14:58:02.580Z,18.07
2019-01-12T15:00:28.587Z,12.73
2019-01-12T15:02:55.866Z,21.30
2019-01-12T15:05:25.422Z,20.13
2019-01-12T15:07:52.613Z,22.97
2019-01-12T15:10:20.878Z,20.10
2019-01-12T15:12:48.499Z,18.40
2019-01-12T15:15:16.633Z,16.67
2019-01-12T15:17:44.210Z,25.60
2019-01-12T15:20:14.239Z,18.30
2019-01-12T15:22:41.503Z,25.07
2019-01-12T15:25:09.178Z,15.60
2019-01-12T15:27:37.185Z,23.53
2019-01-12T15:30:08.326Z,13.20
2019-01-12T15:32:35.568Z,21.67
2019-01-12T15:35:03.935Z,17.20
2019-01-12T15:37:31.275Z,16.27
2019-01-12T15:39:58.496Z,15.23
2019-01-12T15:42:25.731Z,20.00
2019-01-12T15:44:52.985Z,17.23
2019-01-12T15:47:20.258Z,21.63
2019-01-12T15:49:49.051Z,16.03
2019-01-12T15:52:18.541Z,17.97
2019-01-12T15:54:47.407Z,17.87
2019-01-12T15:57:14.882Z,19.30
2019-01-12T15:59:42.225Z,20.17
2019-01-12T16:02:09.597Z,23.00
2019-01-12T16:04:36.935Z,22.87
2019-01-12T16:07:04.168Z,22.23
2019-01-12T16:09:31.397Z,13.60
2019-01-12T16:11:58.678Z,18.30
2019-01-12T16:14:26.133Z,20.50
2019-01-12T16:16:53.464Z,17.97
2019-01-12T16:19:20.946Z,22.07
2019-01-12T16:21:50.526Z,19.70
2019-01-12T16:24:17.782Z,24.53
2019-01-12T16:26:45.082Z,22.07
2019-01-12T16:29:12.524Z,22.13
2019-01-12T16:31:39.960Z,20.93
2019-01-12T16:34:07.407Z,21.17
2019-01-12T16:36:34.803Z,21.23
2019-01-12T16:39:02.210Z,17.70
2019-01-12T16:41:29.441Z,22.07
2019-01-12T16:43:56.738Z,22.27
2019-01-12T16:46:24.000Z,18.07
2019-01-12T16:48:51.585Z,19.23
2019-01-12T16:51:21.697Z,21.00
2019-01-12T16:53:49.246Z,19.83
2019-01-12T16:56:16.530Z,24.27
2019-01-12T16:58:43.985Z,24.07
2019-01-12T17:01:11.251Z,18.67
2019-01-12T17:03:38.555Z,22.13
2019-01-12T17:06:05.804Z,20.37
2019-01-12T17:08:34.409Z,29.00
2019-01-12T17:11:04.021Z,19.10
2019-01-12T17:13:31.492Z,23.63
2019-01-12T17:15:58.714Z,22.40
2019-01-12T17:18:30.029Z,29.47
2019-01-12T17:20:57.703Z,23.27
2019-01-12T17:23:27.040Z,22.20
2019-01-12T17:25:54.524Z,26.10
2019-01-12T17:28:21.827Z,24.63
2019-01-12T17:30:49.382Z,27.20
2019-01-12T17:33:16.728Z,20.97
2019-01-12T17:35:44.089Z,24.80
2019-01-12T17:38:14.022Z,21.33
2019-01-12T17:40:41.381Z,19.57
2019-01-12T17:43:08.687Z,23.30
2019-01-12T17:45:36.039Z,21.43
2019-01-12T17:48:03.707Z,21.73
2019-01-12T17:50:30.968Z,23.40
2019-01-12T17:52:58.303Z,21.77
2019-01-12T17:55:26.781Z,20.00
2019-01-12T17:57:55.526Z,20.57
2019-01-12T18:00:30.075Z,24.07
2019-01-12T18:02:57.729Z,19.93
2019-01-12T18:05:31.565Z,19.93
2019-01-12T18:07:58.983Z,23.07
2019-01-12T18:10:26.331Z,26.47
2019-01-12T18:12:53.612Z,19.67
2019-01-12T18:15:20.855Z,25.23
2019-01-12T18:17:51.255Z,21.93
2019-01-12T18:20:18.673Z,23.73
2019-01-12T18:22:45.976Z,20.37
2019-01-12T18:25:13.960Z,17.30
2019-01-12T18:27:41.917Z,20.00
2019-01-12T18:30:13.821Z,16.63
2019-01-12T18:32:41.093Z,22.23
2019-01-12T18:35:08.544Z,28.33
2019-01-12T18:37:35.826Z,20.10
2019-01-12T18:40:04.221Z,22.10
2019-01-12T18:42:32.367Z,19.63
2019-01-12T18:44:59.619Z,25.93
2019-01-12T18:47:26.859Z,20.10
2019-01-12T18:49:54.145Z,18.00
2019-01-12T18:52:21.385Z,20.23
2019-01-12T18:54:48.706Z,21.83
2019-01-12T18:57:15.939Z,23.67
2019-01-12T18:59:43.321Z,19.10
2019-01-12T19:02:15.251Z,33.87
2019-01-12T19:04:42.618Z,18.77
2019-01-12T19:07:10.199Z,31.57
2019-01-12T19:09:38.372Z,21.53
2019-01-12T19:12:05.943Z,24.20
2019-01-12T19:14:33.257Z,19.63
2019-01-12T19:17:00.484Z,23.73
2019-01-12T19:19:27.707Z,27.17
2019-01-12T19:21:55.168Z,22.03
2019-01-12T19:24:22.684Z,25.70
2019-01-12T19:26:49.964Z,18.97
2019-01-12T19:29:17.247Z,18.53
2019-01-12T19:31:48.036Z,24.53
2019-01-12T19:34:15.325Z,22.33
2019-01-12T19:36:46.823Z,22.13
2019-01-12T19:39:15.811Z,24.27
2019-01-12T19:41:43.090Z,27.03
2019-01-12T19:44:11.220Z,24.03
2019-01-12T19:46:38.431Z,23.93
2019-01-12T19:49:08.251Z,27.30
2019-01-12T19:51:35.631Z,23.87
2019-01-12T19:54:02.875Z,24.07
2019-01-12T19:56:30.151Z,15.73
2019-01-12T19:58:57.503Z,21.33
2019-01-12T20:01:24.730Z,24.67
2019-01-12T20:03:52.010Z,23.93
2019-01-12T20:06:19.321Z,20.97
2019-01-12T20:08:46.520Z,30.33
2019-01-12T20:11:13.787Z,27.27
2019-01-12T20:13:41.199Z,22.30
2019-01-12T20:16:14.382Z,20.03
2019-01-12T20:18:48.691Z,22.43
2019-01-12T20:21:17.196Z,21.13
2019-01-12T20:23:44.460Z,22.27
2019-01-12T20:26:20.798Z,20.33
2019-01-12T20:28:57.115Z,20.83
2019-01-12T20:32:06.611Z,14.43
2019-01-12T20:34:41.412Z,22.00
2019-01-12T20:38:01.247Z,27.10
2019-01-12T20:41:05.611Z,26.37
2019-01-12T20:44:00.195Z,16.30
2019-01-12T20:46:57.697Z,19.70
2019-01-12T20:49:45.408Z,22.70
2019-01-12T20:52:50.173Z,25.63
2019-01-12T20:55:46.183Z,20.77
2019-01-12T20:58:57.129Z,22.43
2019-01-12T21:02:08.058Z,20.37
2019-01-12T21:05:00.909Z,26.57
2019-01-12T21:08:07.411Z,28.70
2019-01-12T21:11:13.975Z,25.53
2019-01-12T21:14:29.079Z,19.73
2019-01-12T21:17:00.579Z,22.70
2019-01-12T21:19:27.803Z,17.03
2019-01-12T21:21:55.057Z,24.50
2019-01-12T21:24:22.275Z,22.73
2019-01-12T21:26:49.556Z,23.87
2019-01-12T21:29:16.817Z,21.30
2019-01-12T21:31:44.052Z,26.90
2019-01-12T21:34:11.322Z,15.57
2019-01-12T21:36:38.561Z,16.87
2019-01-12T21:39:10.369Z,19.93
2019-01-12T21:41:37.849Z,19.93
2019-01-12T21:44:05.328Z,24.97
2019-01-12T21:46:32.757Z,29.77
2019-01-12T21:49:00.127Z,22.80
2019-01-12T21:51:27.481Z,20.33
2019-01-12T21:54:13.424Z,22.47
2019-01-12T21:56:43.626Z,23.87
2019-01-12T21:59:13.185Z,20.97
2019-01-12T22:01:47.630Z,22.07
2019-01-12T22:04:14.874Z,21.83
2019-01-12T22:06:42.162Z,16.33
2019-01-12T22:09:10.396Z,18.53
2019-01-12T22:11:44.634Z,19.10
2019-01-12T22:14:11.948Z,22.10
2019-01-12T22:16:39.175Z,24.27
2019-01-12T22:19:06.444Z,23.63
2019-01-12T22:21:33.718Z,16.60
2019-01-12T22:24:00.965Z,25.57
2019-01-12T22:26:28.230Z,25.47
2019-01-12T22:28:55.496Z,18.37
2019-01-12T22:31:22.740Z,24.40
2019-01-12T22:33:49.988Z,21.93
2019-01-12T22:36:17.672Z,19.97
2019-01-12T22:38:44.922Z,24.53
2019-01-12T22:41:12.215Z,20.57
2019-01-12T22:43:41.949Z,18.27
2019-01-12T22:46:09.225Z,21.80
2019-01-12T22:48:36.463Z,21.77
2019-01-12T22:51:03.841Z,20.63
2019-01-12T22:53:31.136Z,24.23
2019-01-12T22:55:58.380Z,21.23
2019-01-12T22:58:25.622Z,20.70
2019-01-12T23:01:13.987Z,20.47
2019-01-12T23:03:45.787Z,19.00
2019-01-12T23:06:13.242Z,20.70
2019-01-12T23:08:40.453Z,22.53
2019-01-12T23:11:07.716Z,27.00
2019-01-12T23:13:34.993Z,16.57
2019-01-12T23:16:02.515Z,21.73
2019-01-12T23:18:30.083Z,22.47
2019-01-12T23:20:57.688Z,20.10
2019-01-12T23:23:24.930Z,22.90
2019-01-12T23:25:52.152Z,23.40
2019-01-12T23:28:19.626Z,20.90
2019-01-12T23:30:46.875Z,20.53
2019-01-12T23:33:14.109Z,19.50
2019-01-12T23:35:41.389Z,25.13
2019-01-12T23:38:08.964Z,28.90
2019-01-12T23:40:36.190Z,15.97
2019-01-12T23:43:03.680Z,19.03
2019-01-12T23:45:30.905Z,22.97
2019-01-12T23:47:58.162Z,15.00
2019-01-12T23:50:25.397Z,19.00
2019-01-12T23:52:52.649Z,21.33
2019-01-12T23:55:19.906Z,26.43
2019-01-12T23:57:47.140Z,28.80
